Time;durP1;ratioP1;P1;durP2;ratioP2;P2;SDS_P1;SDS_P2;PMS_P1;PMS_P2;Temp;Humidity;BMP_temperature;BMP_pressure;BME280_temperature;BME280_humidity;BME280_pressure;Samples;Min_cycle;Max_cycle;Signal;HPM_P1;HPM_P2
2021/03/11 00:03:10;;;;;;;2.73;2.47;;;20.10;48.20;;;;;;10392916;28;20223;-22
2021/03/11 00:08:32;;;;;;;2.87;2.23;;;20.10;48.10;;;;;;10404147;28;20227;-22
2021/03/11 00:13:53;;;;;;;4.13;3.03;;;20.20;48.10;;;;;;10411370;28;20213;-22
2021/03/11 00:19:16;;;;;;;3.43;3.10;;;20.10;48.20;;;;;;10403850;28;20570;-21
2021/03/11 00:24:38;;;;;;;3.00;2.60;;;20.10;48.40;;;;;;10417991;28;20706;-22
2021/03/11 00:29:59;;;;;;;3.03;2.30;;;20.00;48.40;;;;;;10412137;28;20272;-21
2021/03/11 00:35:22;;;;;;;3.53;2.43;;;20.10;48.90;;;;;;10381740;28;20224;-21
2021/03/11 00:40:43;;;;;;;3.37;2.90;;;20.10;48.20;;;;;;10371581;28;20614;-22
2021/03/11 00:46:05;;;;;;;3.30;2.80;;;20.10;48.20;;;;;;10369941;28;20217;-21
2021/03/11 00:51:27;;;;;;;3.03;2.40;;;20.00;48.80;;;;;;10370478;28;20210;-22
2021/03/11 00:56:49;;;;;;;4.17;2.60;;;20.00;48.40;;;;;;10371628;28;20719;-22
2021/03/11 01:02:11;;;;;;;3.57;2.37;;;20.10;48.30;;;;;;10371580;28;20577;-22
2021/03/11 01:07:33;;;;;;;2.80;2.50;;;20.10;48.30;;;;;;10391610;28;20215;-21
2021/03/11 01:12:55;;;;;;;2.80;2.50;;;20.00;48.80;;;;;;10450987;28;20220;-21
2021/03/11 01:18:16;;;;;;;3.50;2.73;;;20.00;48.40;;;;;;10435309;28;20197;-22
2021/03/11 01:23:39;;;;;;;2.67;2.47;;;20.00;48.40;;;;;;10442530;28;20223;-21
2021/03/11 01:29:00;;;;;;;2.47;2.27;;;20.00;48.30;;;;;;10391552;28;20696;-22
2021/03/11 01:34:22;;;;;;;3.40;2.67;;;20.00;48.30;;;;;;10440796;28;20218;-22
2021/03/11 01:39:44;;;;;;;2.40;2.20;;;20.00;48.40;;;;;;10451885;28;20216;-22
2021/03/11 01:45:08;;;;;;;2.73;2.07;;;19.90;48.40;;;;;;10444162;28;20215;-22
2021/03/11 01:50:29;;;;;;;3.73;2.50;;;20.00;48.50;;;;;;10370170;28;20222;-21
2021/03/11 01:55:52;;;;;;;2.80;2.23;;;19.90;48.30;;;;;;10430384;23;20227;-23
2021/03/11 02:01:14;;;;;;;2.57;2.17;;;20.00;48.40;;;;;;10432661;28;20294;-22
2021/03/11 02:06:35;;;;;;;2.50;2.30;;;19.90;48.50;;;;;;10419638;28;20217;-23
2021/03/11 02:12:06;;;;;;;2.57;2.30;;;19.90;48.50;;;;;;10448827;28;20220;-25
2021/03/11 02:17:34;;;;;;;2.43;2.10;;;19.90;48.50;;;;;;10418175;28;20213;-23
2021/03/11 02:23:37;;;;;;;2.23;1.93;;;20.00;48.40;;;;;;10449852;28;20196;-22
2021/03/11 02:29:03;;;;;;;2.53;1.93;;;19.90;48.50;;;;;;10440470;28;21080;-23
2021/03/11 02:34:30;;;;;;;2.30;2.03;;;19.80;48.60;;;;;;10443960;28;20589;-25
2021/03/11 02:39:57;;;;;;;2.13;2.00;;;19.80;48.60;;;;;;10457519;28;20621;-23
2021/03/11 02:45:22;;;;;;;2.30;2.10;;;19.90;48.50;;;;;;10432100;28;20214;-23
2021/03/11 02:50:44;;;;;;;2.40;2.20;;;19.90;48.50;;;;;;10415362;28;20217;-24
2021/03/11 02:56:06;;;;;;;2.80;2.20;;;19.90;48.60;;;;;;10414622;28;20221;-22
2021/03/11 03:01:29;;;;;;;2.07;1.83;;;19.80;48.70;;;;;;10450682;28;20196;-24
2021/03/11 03:06:51;;;;;;;2.33;2.13;;;19.80;48.60;;;;;;10456230;28;20237;-22
2021/03/11 03:12:14;;;;;;;1.90;1.70;;;19.90;48.60;;;;;;10414159;28;20230;-20
2021/03/11 03:17:38;;;;;;;2.17;1.97;;;19.90;48.60;;;;;;10423756;28;20219;-23
2021/03/11 03:23:05;;;;;;;2.57;2.00;;;19.80;48.60;;;;;;10453851;28;20209;-23
2021/03/11 03:28:26;;;;;;;2.10;1.90;;;19.80;48.80;;;;;;10449696;28;20209;-23
2021/03/11 03:33:49;;;;;;;2.93;2.20;;;19.80;48.80;;;;;;10455039;28;20218;-22
2021/03/11 03:39:10;;;;;;;2.00;1.80;;;19.80;48.60;;;;;;10453751;28;20201;-22
2021/03/11 03:44:35;;;;;;;2.20;2.00;;;19.80;48.60;;;;;;10431616;28;20219;-22
2021/03/11 03:49:58;;;;;;;2.10;1.83;;;19.80;48.70;;;;;;10413419;28;20221;-22
2021/03/11 03:55:21;;;;;;;2.30;2.10;;;19.80;48.80;;;;;;10412903;28;20231;-24
2021/03/11 04:00:43;;;;;;;2.47;1.97;;;19.80;48.80;;;;;;10442453;28;20223;-24
2021/03/11 04:06:09;;;;;;;2.90;2.13;;;19.80;48.70;;;;;;10453510;28;20216;-24
2021/03/11 04:11:32;;;;;;;1.60;1.50;;;19.80;48.60;;;;;;10448202;28;20218;-24
2021/03/11 04:16:55;;;;;;;2.37;1.97;;;19.80;48.90;;;;;;10446145;28;20234;-23
2021/03/11 04:22:18;;;;;;;2.10;1.90;;;19.70;48.90;;;;;;10451765;28;20202;-23
2021/03/11 04:27:40;;;;;;;2.33;1.90;;;19.80;48.90;;;;;;10436978;28;20200;-22
2021/03/11 04:33:02;;;;;;;1.60;1.50;;;19.80;48.70;;;;;;10451717;28;20217;-22
2021/03/11 04:38:25;;;;;;;2.07;1.90;;;19.80;48.80;;;;;;10410783;28;20195;-23
2021/03/11 04:43:47;;;;;;;1.77;1.67;;;19.80;48.70;;;;;;10411266;28;20553;-23
2021/03/11 04:49:09;;;;;;;2.20;2.00;;;19.90;48.50;;;;;;10440695;28;20222;-22
2021/03/11 04:54:33;;;;;;;1.70;1.60;;;20.00;48.20;;;;;;10442749;28;20222;-21
2021/03/11 04:59:57;;;;;;;1.90;1.50;;;20.10;48.00;;;;;;10432552;28;20204;-23
2021/03/11 05:05:29;;;;;;;1.63;1.50;;;20.10;47.90;;;;;;10410931;28;20304;-22
2021/03/11 05:10:51;;;;;;;1.90;1.70;;;20.10;48.00;;;;;;10423753;28;20206;-21
2021/03/11 05:16:13;;;;;;;1.77;1.60;;;20.10;48.20;;;;;;10451316;28;20247;-24
2021/03/11 05:21:34;;;;;;;1.63;1.30;;;20.20;48.10;;;;;;10410672;28;20190;-23
2021/03/11 05:26:57;;;;;;;1.53;1.23;;;20.20;47.80;;;;;;10410167;28;20220;-23
2021/03/11 05:32:18;;;;;;;1.50;1.40;;;20.30;47.70;;;;;;10409331;28;20228;-23
2021/03/11 05:37:40;;;;;;;1.67;1.57;;;20.20;47.80;;;;;;10446396;28;20199;-20
2021/03/11 05:43:05;;;;;;;2.00;1.83;;;20.20;48.00;;;;;;10448188;28;20224;-22
2021/03/11 05:48:27;;;;;;;1.60;1.50;;;20.20;47.90;;;;;;10412266;28;20285;-23
2021/03/11 05:53:49;;;;;;;1.40;1.30;;;20.30;47.80;;;;;;10440522;28;20314;-23
2021/03/11 05:59:12;;;;;;;1.57;1.37;;;20.30;47.60;;;;;;10426059;28;20296;-24
2021/03/11 06:04:34;;;;;;;1.47;1.33;;;20.30;48.20;;;;;;10449202;28;20217;-25
2021/03/11 06:10:01;;;;;;;1.37;1.20;;;20.30;47.80;;;;;;10442129;28;20244;-26
2021/03/11 06:15:31;;;;;;;1.50;1.30;;;20.10;48.00;;;;;;10442611;28;20222;-24
2021/03/11 06:20:53;;;;;;;1.50;1.40;;;20.10;48.30;;;;;;10430847;28;20565;-23
2021/03/11 06:26:14;;;;;;;1.33;1.20;;;20.10;48.30;;;;;;10416219;28;20252;-24
2021/03/11 06:31:38;;;;;;;1.67;1.23;;;20.20;48.20;;;;;;10447840;28;20223;-25
2021/03/11 06:36:59;;;;;;;1.37;1.27;;;20.30;48.00;;;;;;10457529;28;20228;-24
2021/03/11 06:42:24;;;;;;;1.63;1.30;;;20.30;47.90;;;;;;10435459;28;21038;-24
2021/03/11 06:47:47;;;;;;;1.20;1.10;;;20.30;48.00;;;;;;10415716;28;20681;-23
2021/03/11 06:53:09;;;;;;;1.40;1.30;;;20.20;48.20;;;;;;10415005;28;20235;-23
2021/03/11 06:58:31;;;;;;;0.80;0.80;;;20.20;48.20;;;;;;10426365;28;20193;-23
2021/03/11 07:03:54;;;;;;;1.90;1.17;;;20.30;48.10;;;;;;10448159;28;20283;-22
2021/03/11 07:09:16;;;;;;;1.33;1.23;;;20.30;48.10;;;;;;10447465;28;20224;-24
2021/03/11 07:14:38;;;;;;;2.27;1.03;;;20.30;48.20;;;;;;10432503;28;20214;-23
2021/03/11 07:20:11;;;;;;;1.50;1.10;;;20.40;48.40;;;;;;10443457;28;20231;-23
2021/03/11 07:25:34;;;;;;;2.03;1.03;;;20.40;48.50;;;;;;10444318;28;20229;-23
2021/03/11 07:30:57;;;;;;;1.37;1.20;;;20.50;48.50;;;;;;10453624;28;20248;-23
2021/03/11 07:36:19;;;;;;;1.67;1.17;;;20.60;48.60;;;;;;10438857;28;20713;-22
2021/03/11 07:41:41;;;;;;;1.07;0.93;;;20.70;48.50;;;;;;10447510;28;20194;-23
2021/03/11 07:47:05;;;;;;;1.43;0.97;;;20.70;48.50;;;;;;10439539;28;20276;-21
2021/03/11 07:52:28;;;;;;;1.20;1.10;;;20.60;48.60;;;;;;10413124;28;20581;-24
2021/03/11 07:57:49;;;;;;;1.83;1.00;;;20.70;48.90;;;;;;10442124;28;20195;-24
2021/03/11 08:03:14;;;;;;;1.43;1.30;;;20.50;49.10;;;;;;10453919;28;20326;-24
2021/03/11 08:08:42;;;;;;;1.20;0.97;;;20.50;49.20;;;;;;10448794;28;20200;-24
2021/03/11 08:14:17;;;;;;;2.37;1.20;;;20.50;49.40;;;;;;10445481;28;20287;-26
2021/03/11 08:19:48;;;;;;;2.10;1.30;;;20.40;49.50;;;;;;10440778;28;20200;-24
2021/03/11 08:25:49;;;;;;;1.30;1.07;;;20.40;49.50;;;;;;10442358;28;20279;-24
2021/03/11 08:31:11;;;;;;;1.43;0.80;;;20.30;49.60;;;;;;10446071;28;20269;-23
2021/03/11 08:36:42;;;;;;;1.10;1.00;;;20.30;49.90;;;;;;10426803;28;20230;-24
2021/03/11 08:42:47;;;;;;;0.97;0.87;;;20.30;49.80;;;;;;10444781;28;20197;-23
2021/03/11 08:48:14;;;;;;;3.83;0.60;;;20.50;49.60;;;;;;10447458;28;20232;-23
2021/03/11 08:53:50;;;;;;;0.80;0.80;;;21.00;48.00;;;;;;10422812;28;20223;-24
2021/03/11 08:59:14;;;;;;;1.10;0.80;;;20.70;48.70;;;;;;10427522;28;20203;-24
2021/03/11 09:04:40;;;;;;;0.93;0.80;;;20.40;49.40;;;;;;10404788;28;20300;-24
2021/03/11 09:10:02;;;;;;;1.10;0.90;;;20.40;49.70;;;;;;10403425;28;20221;-22
2021/03/11 09:15:25;;;;;;;1.40;0.87;;;20.30;49.70;;;;;;10408400;28;20227;-26
2021/03/11 09:20:53;;;;;;;0.97;0.80;;;20.30;49.80;;;;;;10444456;28;20203;-23
2021/03/11 09:26:25;;;;;;;1.13;0.93;;;20.30;49.90;;;;;;10433370;28;20304;-23
2021/03/11 09:31:47;;;;;;;1.20;0.70;;;20.30;50.10;;;;;;10409170;28;20291;-23
2021/03/11 09:37:10;;;;;;;2.87;0.80;;;20.20;50.20;;;;;;10430737;28;20218;-26
2021/03/11 09:42:31;;;;;;;1.00;0.80;;;20.20;50.20;;;;;;10403099;28;20624;-24
2021/03/11 09:47:53;;;;;;;1.47;0.80;;;20.20;50.10;;;;;;10411784;28;20212;-25
2021/03/11 09:53:16;;;;;;;1.17;0.77;;;20.30;50.20;;;;;;10411739;28;20739;-24
2021/03/11 09:58:46;;;;;;;0.60;0.60;;;20.30;50.20;;;;;;10410589;28;20201;-24
2021/03/11 10:04:13;;;;;;;1.30;0.70;;;20.20;50.30;;;;;;10443544;28;20270;-25
2021/03/11 10:09:38;;;;;;;0.60;0.60;;;20.10;50.40;;;;;;10446698;28;20216;-23
2021/03/11 10:15:06;;;;;;;1.93;0.60;;;20.20;50.50;;;;;;10450731;28;20265;-25
2021/03/11 10:20:29;;;;;;;2.30;0.60;;;20.20;50.30;;;;;;10467045;23;20224;-20
2021/03/11 10:26:13;;;;;;;1.07;0.80;;;20.30;50.20;;;;;;10466988;28;20673;-22
2021/03/11 10:31:35;;;;;;;0.53;0.50;;;20.20;50.30;;;;;;10463023;28;20214;-22
2021/03/11 10:36:59;;;;;;;0.70;0.70;;;20.10;50.50;;;;;;10434589;28;20208;-22
2021/03/11 10:42:22;;;;;;;0.60;0.60;;;20.10;50.60;;;;;;10436475;28;20221;-22
2021/03/11 10:47:44;;;;;;;0.80;0.70;;;20.10;50.60;;;;;;10449258;28;20201;-19
2021/03/11 10:53:06;;;;;;;0.80;0.70;;;20.10;50.50;;;;;;10456378;28;20730;-21
2021/03/11 10:58:28;;;;;;;0.70;0.70;;;20.10;50.40;;;;;;10384012;28;20576;-21
2021/03/11 11:03:50;;;;;;;0.97;0.63;;;20.30;49.90;;;;;;10406514;28;20221;-22
2021/03/11 11:09:11;;;;;;;0.47;0.47;;;20.50;49.60;;;;;;10406800;28;20222;-22
2021/03/11 11:14:34;;;;;;;1.33;0.70;;;20.60;49.20;;;;;;10412664;28;20224;-22
2021/03/11 11:19:55;;;;;;;0.50;0.50;;;20.80;49.30;;;;;;10440724;28;20228;-22
2021/03/11 11:25:17;;;;;;;1.73;0.60;;;20.90;48.80;;;;;;10427842;28;20642;-21
2021/03/11 11:30:39;;;;;;;0.67;0.67;;;21.00;48.50;;;;;;10413001;28;20224;-21
2021/03/11 11:36:01;;;;;;;1.00;0.60;;;20.90;48.70;;;;;;10406644;28;20213;-21
2021/03/11 11:41:23;;;;;;;1.50;0.70;;;20.70;49.30;;;;;;10372371;28;20225;-21
2021/03/11 11:46:46;;;;;;;2.60;0.70;;;20.60;49.80;;;;;;10405018;28;20303;-22
2021/03/11 11:52:08;;;;;;;2.73;0.83;;;20.60;50.00;;;;;;10454516;28;20223;-20
2021/03/11 11:57:29;;;;;;;0.90;0.80;;;20.50;50.00;;;;;;10425849;28;20203;-22
2021/03/11 12:02:52;;;;;;;0.90;0.73;;;20.50;50.10;;;;;;10416441;28;20581;-21
2021/03/11 12:08:13;;;;;;;1.47;0.90;;;20.40;50.30;;;;;;10365885;28;20194;-22
2021/03/11 12:13:35;;;;;;;2.40;0.80;;;20.30;50.50;;;;;;10365490;28;20269;-21
2021/03/11 12:18:57;;;;;;;1.27;0.80;;;20.30;50.50;;;;;;10401196;28;20205;-22
2021/03/11 12:24:19;;;;;;;1.30;1.10;;;20.20;50.60;;;;;;10411507;28;20213;-22
2021/03/11 12:29:40;;;;;;;2.30;1.10;;;20.20;50.70;;;;;;10411599;28;20244;-22
2021/03/11 12:35:03;;;;;;;3.37;1.30;;;20.10;50.80;;;;;;10411986;28;20530;-21
2021/03/11 12:40:26;;;;;;;3.63;1.60;;;20.20;50.80;;;;;;10417658;28;20565;-21
2021/03/11 12:45:47;;;;;;;5.37;1.90;;;20.20;50.80;;;;;;10447632;28;20200;-21
2021/03/11 12:51:10;;;;;;;6.50;1.80;;;20.30;50.00;;;;;;10427224;28;20911;-21
2021/03/11 12:56:32;;;;;;;4.33;2.10;;;20.30;50.00;;;;;;10407762;28;20202;-21
2021/03/11 13:01:53;;;;;;;13.67;3.53;;;20.30;50.00;;;;;;10410814;28;20279;-19
2021/03/11 13:07:16;;;;;;;12.50;3.30;;;20.30;50.00;;;;;;10404024;28;20204;-22
2021/03/11 13:12:38;;;;;;;25.17;4.33;;;20.30;50.00;;;;;;10404180;28;20221;-21
2021/03/11 13:18:00;;;;;;;12.33;4.00;;;20.30;49.70;;;;;;10414447;28;20215;-21
2021/03/11 13:23:22;;;;;;;15.53;3.53;;;20.30;49.40;;;;;;10407301;28;20225;-22
2021/03/11 13:28:44;;;;;;;8.43;3.37;;;20.30;49.50;;;;;;10409197;28;20249;-21
2021/03/11 13:34:05;;;;;;;13.73;4.03;;;20.30;49.50;;;;;;10418384;28;20217;-22
2021/03/11 13:39:28;;;;;;;12.43;3.90;;;20.30;49.30;;;;;;10403660;28;20660;-21
2021/03/11 13:44:50;;;;;;;11.63;3.30;;;20.30;49.10;;;;;;10424462;28;20669;-21
2021/03/11 13:50:13;;;;;;;8.17;3.53;;;20.40;48.80;;;;;;10423931;28;20225;-21
2021/03/11 13:55:36;;;;;;;93.30;9.30;;;20.20;48.60;;;;;;10408475;28;20212;-21
2021/03/11 14:00:57;;;;;;;21.20;3.83;;;20.10;47.30;;;;;;10404226;28;20221;-21
2021/03/11 14:06:19;;;;;;;33.23;3.80;;;20.00;48.40;;;;;;10429730;28;20214;-22
2021/03/11 14:11:45;;;;;;;11.50;3.17;;;20.10;49.00;;;;;;10444109;28;20221;-22
2021/03/11 14:17:07;;;;;;;8.70;3.27;;;20.10;49.20;;;;;;10423831;28;20194;-22
2021/03/11 14:22:28;;;;;;;10.33;2.80;;;20.10;49.40;;;;;;10448864;28;20236;-21
2021/03/11 14:27:51;;;;;;;7.03;2.57;;;20.10;49.80;;;;;;10446289;28;20251;-22
2021/03/11 14:33:14;;;;;;;17.73;3.33;;;20.10;49.90;;;;;;10419959;28;20727;-21
2021/03/11 14:38:35;;;;;;;7.27;2.17;;;20.10;49.90;;;;;;10416351;28;20212;-20
2021/03/11 14:43:58;;;;;;;6.70;2.47;;;20.20;49.90;;;;;;10415532;28;20214;-22
2021/03/11 14:49:19;;;;;;;6.80;2.27;;;20.20;49.80;;;;;;10414389;28;20217;-22
2021/03/11 14:54:43;;;;;;;7.97;2.57;;;20.20;49.90;;;;;;10413337;28;20208;-22
2021/03/11 15:00:07;;;;;;;5.67;2.00;;;20.20;50.10;;;;;;10432622;28;20632;-22
2021/03/11 15:05:29;;;;;;;7.57;2.57;;;20.20;50.10;;;;;;10455800;28;20193;-21
2021/03/11 15:10:51;;;;;;;5.20;2.13;;;20.20;50.10;;;;;;10426662;28;20716;-22
2021/03/11 15:16:15;;;;;;;10.67;2.33;;;20.30;50.00;;;;;;10415040;28;20205;-21
2021/03/11 15:21:37;;;;;;;5.27;2.13;;;20.30;50.10;;;;;;10372614;28;20222;-22
2021/03/11 15:27:00;;;;;;;4.90;2.03;;;20.20;50.20;;;;;;10396095;28;20693;-21
2021/03/11 15:32:23;;;;;;;3.97;1.83;;;20.20;50.40;;;;;;10427224;28;20800;-22
2021/03/11 15:37:44;;;;;;;4.97;1.63;;;20.20;50.50;;;;;;10383254;28;20582;-21
2021/03/11 15:43:06;;;;;;;4.40;1.80;;;20.20;50.50;;;;;;10430270;28;20216;-22
2021/03/11 15:48:29;;;;;;;4.57;1.47;;;20.30;50.30;;;;;;10451625;28;20197;-22
2021/03/11 15:53:51;;;;;;;5.70;1.70;;;20.20;50.40;;;;;;10436944;28;20639;-21
2021/03/11 15:59:13;;;;;;;5.33;1.90;;;20.20;50.50;;;;;;10410710;28;20189;-22
2021/03/11 16:04:35;;;;;;;3.27;1.40;;;20.30;51.00;;;;;;10414549;28;20197;-22
2021/03/11 16:09:59;;;;;;;4.00;1.70;;;20.30;50.30;;;;;;10423251;28;20577;-23
2021/03/11 16:15:21;;;;;;;3.13;1.33;;;20.40;50.30;;;;;;10410592;28;20205;-22
2021/03/11 16:20:43;;;;;;;3.40;1.70;;;20.30;50.40;;;;;;10426731;28;20703;-23
2021/03/11 16:26:05;;;;;;;15.73;3.20;;;20.40;50.60;;;;;;10414595;28;20198;-22
2021/03/11 16:31:27;;;;;;;5.03;1.93;;;20.50;49.30;;;;;;10401692;28;20224;-22
2021/03/11 16:36:49;;;;;;;5.70;2.07;;;20.50;49.20;;;;;;10411105;28;20201;-22
2021/03/11 16:42:11;;;;;;;5.73;2.20;;;20.50;49.50;;;;;;10448191;28;20216;-22
2021/03/11 16:47:32;;;;;;;4.07;1.70;;;20.40;49.80;;;;;;10451688;28;20200;-22
2021/03/11 16:52:55;;;;;;;5.60;1.80;;;20.40;50.00;;;;;;10433788;28;20230;-22
2021/03/11 16:58:17;;;;;;;4.30;2.07;;;20.50;49.90;;;;;;10418453;28;20192;-22
2021/03/11 17:03:40;;;;;;;5.83;1.80;;;20.50;49.90;;;;;;10434469;28;20646;-21
2021/03/11 17:09:02;;;;;;;7.77;2.03;;;20.50;49.90;;;;;;10400801;28;20203;-21
2021/03/11 17:14:24;;;;;;;2.97;1.53;;;20.50;50.00;;;;;;10368669;28;20195;-22
2021/03/11 17:19:48;;;;;;;4.17;1.67;;;20.50;50.20;;;;;;10427827;28;20715;-21
2021/03/11 17:25:12;;;;;;;2.50;1.40;;;20.50;50.20;;;;;;10413785;28;20680;-22
2021/03/11 17:30:33;;;;;;;2.07;1.30;;;20.50;50.10;;;;;;10404298;28;20229;-22
2021/03/11 17:35:55;;;;;;;5.17;1.80;;;20.60;49.90;;;;;;10441020;22;20604;-28
2021/03/11 17:41:18;;;;;;;3.83;1.43;;;20.60;49.90;;;;;;10469233;28;20208;-25
2021/03/11 17:46:40;;;;;;;7.93;1.70;;;20.50;50.00;;;;;;10472409;28;20270;-25
2021/03/11 17:52:01;;;;;;;4.80;1.40;;;20.50;50.00;;;;;;10448707;28;20230;-26
2021/03/11 17:57:24;;;;;;;3.40;1.27;;;20.50;50.00;;;;;;10426431;28;20275;-25
2021/03/11 18:02:45;;;;;;;2.13;1.30;;;20.50;49.90;;;;;;10407177;28;20731;-25
2021/03/11 18:08:07;;;;;;;3.00;1.53;;;20.50;49.70;;;;;;10411838;28;20221;-26
2021/03/11 18:13:30;;;;;;;3.00;1.27;;;20.50;49.70;;;;;;10414843;28;20576;-27
2021/03/11 18:18:51;;;;;;;4.33;1.70;;;20.40;49.80;;;;;;10434335;28;20229;-27
2021/03/11 18:24:13;;;;;;;3.43;2.07;;;20.50;49.80;;;;;;10453928;28;20204;-28
2021/03/11 18:29:35;;;;;;;11.57;4.20;;;20.50;49.60;;;;;;10420219;28;20213;-26
2021/03/11 18:34:57;;;;;;;14.67;6.97;;;20.50;49.60;;;;;;10419626;28;20214;-26
2021/03/11 18:40:20;;;;;;;17.23;8.77;;;20.50;49.80;;;;;;10412174;28;20190;-25
2021/03/11 18:45:43;;;;;;;19.57;10.03;;;20.60;49.80;;;;;;10412794;28;20221;-24
2021/03/11 18:51:06;;;;;;;21.70;10.67;;;20.60;49.80;;;;;;10413037;28;20217;-26
2021/03/11 18:56:27;;;;;;;20.93;10.63;;;20.60;49.90;;;;;;10413352;28;20700;-31
2021/03/11 19:01:50;;;;;;;22.93;10.67;;;20.50;49.90;;;;;;10371916;28;20194;-26
2021/03/11 19:07:12;;;;;;;20.43;10.07;;;20.60;49.80;;;;;;10371940;28;20214;-26
2021/03/11 19:12:34;;;;;;;23.97;10.10;;;20.60;49.70;;;;;;10370504;28;20219;-25
2021/03/11 19:17:57;;;;;;;18.40;9.13;;;20.50;49.80;;;;;;10394718;28;20356;-26
2021/03/11 19:23:19;;;;;;;18.40;9.80;;;20.50;50.40;;;;;;10454076;28;20190;-25
2021/03/11 19:28:41;;;;;;;19.60;10.20;;;20.60;49.70;;;;;;10443035;28;20588;-26
2021/03/11 19:34:03;;;;;;;19.60;9.53;;;20.50;49.70;;;;;;10418141;28;20652;-26
2021/03/11 19:39:25;;;;;;;16.97;9.57;;;20.50;49.80;;;;;;10385793;28;20715;-25
2021/03/11 19:44:46;;;;;;;16.13;8.90;;;20.50;49.80;;;;;;10411208;28;20223;-28
2021/03/11 19:50:12;;;;;;;14.47;8.27;;;20.50;49.90;;;;;;10410546;28;20224;-29
2021/03/11 19:55:34;;;;;;;15.67;8.07;;;20.50;50.00;;;;;;10412631;28;20222;-26
2021/03/11 20:00:55;;;;;;;16.93;8.50;;;20.50;50.00;;;;;;10410289;28;20722;-26
2021/03/11 20:06:18;;;;;;;14.43;7.90;;;20.50;49.80;;;;;;10408365;28;20240;-27
2021/03/11 20:11:39;;;;;;;15.93;7.87;;;20.60;49.70;;;;;;10381570;28;20222;-25
2021/03/11 20:17:01;;;;;;;12.43;7.50;;;20.60;49.80;;;;;;10401253;28;20886;-26
2021/03/11 20:22:23;;;;;;;17.80;9.37;;;20.60;49.70;;;;;;10408950;28;20287;-26
2021/03/11 20:27:45;;;;;;;16.40;9.03;;;20.70;49.80;;;;;;10395960;28;20221;-26
2021/03/11 20:33:07;;;;;;;19.47;10.07;;;20.70;49.80;;;;;;10407971;28;20237;-25
2021/03/11 20:38:29;;;;;;;18.40;9.60;;;21.00;49.50;;;;;;10410701;28;20597;-26
2021/03/11 20:43:51;;;;;;;17.17;10.17;;;21.00;49.30;;;;;;10414925;28;20204;-25
2021/03/11 20:49:13;;;;;;;16.47;9.20;;;20.90;49.60;;;;;;10393597;28;20217;-25
2021/03/11 20:54:35;;;;;;;17.40;8.57;;;21.10;49.20;;;;;;10398019;28;51449;-28
2021/03/11 20:59:57;;;;;;;15.40;9.13;;;21.30;48.60;;;;;;10411199;28;20695;-29
2021/03/11 21:05:20;;;;;;;14.60;8.90;;;21.40;48.30;;;;;;10410280;28;20221;-25
2021/03/11 21:10:43;;;;;;;13.93;8.50;;;21.40;48.20;;;;;;10401456;28;20297;-25
2021/03/11 21:16:05;;;;;;;14.47;7.93;;;21.50;47.90;;;;;;10409827;28;20268;-26
2021/03/11 21:21:27;;;;;;;11.83;7.63;;;21.60;47.70;;;;;;10410427;28;20669;-27
2021/03/11 21:26:49;;;;;;;15.23;8.40;;;21.70;47.50;;;;;;10388328;28;20225;-30
2021/03/11 21:32:11;;;;;;;11.97;7.00;;;21.70;47.30;;;;;;10373976;28;20222;-26
2021/03/11 21:37:32;;;;;;;13.93;7.37;;;21.80;47.40;;;;;;10374871;28;20621;-24
2021/03/11 21:42:55;;;;;;;12.33;7.27;;;21.70;47.30;;;;;;10418420;28;20190;-26
2021/03/11 21:48:18;;;;;;;12.13;6.83;;;21.70;47.50;;;;;;10423627;28;20221;-26
2021/03/11 21:53:41;;;;;;;12.00;6.70;;;21.60;47.70;;;;;;10422687;28;20221;-27
2021/03/11 21:59:04;;;;;;;10.97;6.13;;;21.50;47.90;;;;;;10423326;28;20213;-25
2021/03/11 22:04:26;;;;;;;10.83;7.03;;;21.40;48.20;;;;;;10414404;28;20198;-25
2021/03/11 22:09:48;;;;;;;9.67;6.47;;;21.30;48.40;;;;;;10400984;28;20202;-26
2021/03/11 22:15:12;;;;;;;9.70;5.87;;;21.20;48.60;;;;;;10414071;28;20214;-27
2021/03/11 22:20:35;;;;;;;11.97;6.07;;;21.10;48.80;;;;;;10422946;28;20225;-27
2021/03/11 22:25:57;;;;;;;12.33;5.80;;;21.20;48.80;;;;;;10422966;28;20280;-26
2021/03/11 22:31:20;;;;;;;9.53;6.17;;;21.30;48.60;;;;;;10418475;28;20217;-26
2021/03/11 22:36:42;;;;;;;10.23;5.60;;;21.20;48.40;;;;;;10390692;28;20237;-27
2021/03/11 22:42:05;;;;;;;9.93;6.20;;;21.30;48.50;;;;;;10385453;28;20317;-26
2021/03/11 22:47:27;;;;;;;10.40;6.10;;;21.20;48.60;;;;;;10413195;28;20214;-26
2021/03/11 22:52:49;;;;;;;9.53;5.70;;;21.20;48.50;;;;;;10418539;28;20224;-26
2021/03/11 22:58:10;;;;;;;10.03;5.50;;;20.90;48.90;;;;;;10388825;28;20221;-26
2021/03/11 23:03:33;;;;;;;7.97;4.97;;;20.70;49.70;;;;;;10400020;28;20688;-28
2021/03/11 23:08:54;;;;;;;7.73;5.07;;;20.50;50.30;;;;;;10415467;28;20217;-28
2021/03/11 23:14:16;;;;;;;7.27;5.10;;;20.30;50.50;;;;;;10390503;28;20222;-27
2021/03/11 23:19:39;;;;;;;7.53;5.10;;;20.30;50.70;;;;;;10400314;28;20193;-26
2021/03/11 23:25:01;;;;;;;8.73;5.10;;;20.20;50.80;;;;;;10419854;28;20217;-24
2021/03/11 23:30:25;;;;;;;7.83;4.60;;;20.10;51.00;;;;;;10400837;28;20688;-25
2021/03/11 23:35:49;;;;;;;6.83;4.13;;;20.10;51.20;;;;;;10453448;28;20596;-26
2021/03/11 23:41:11;;;;;;;8.83;4.70;;;20.00;51.10;;;;;;10404300;28;20606;-27
2021/03/11 23:46:34;;;;;;;7.80;4.53;;;20.00;51.20;;;;;;10415157;28;20225;-27
2021/03/11 23:51:56;;;;;;;8.17;4.90;;;19.90;51.30;;;;;;10413876;28;20707;-28
2021/03/11 23:57:18;;;;;;;7.77;4.67;;;19.90;51.50;;;;;;10386934;28;20219;-27
